createdAt,value
2017-09-15T16:00:30.705Z,11.07
2017-09-15T16:02:59.984Z,14.20
2017-09-15T16:05:29.785Z,12.00
2017-09-15T16:14:55.352Z,329.87
2017-09-15T16:25:49.435Z,111.57
2017-09-15T17:58:41.922Z,4.00
2017-09-15T18:01:09.494Z,2.67
2017-09-15T18:03:37.322Z,3.57
2017-09-15T18:06:05.321Z,3.80
2017-09-15T18:08:33.178Z,3.10
2017-09-15T18:11:01.450Z,3.70
2017-09-15T18:13:29.022Z,3.90
2017-09-15T18:15:56.806Z,3.10
2017-09-15T18:18:25.437Z,3.47
2017-09-15T18:20:52.993Z,3.70
2017-09-15T18:23:21.237Z,7.17
2017-09-15T18:25:48.778Z,3.40
2017-09-15T18:28:18.502Z,5.37
2017-09-15T18:30:46.059Z,8.80
2017-09-15T18:33:13.772Z,3.30
2017-09-15T18:35:41.905Z,5.00
2017-09-15T18:38:10.169Z,3.80
2017-09-15T18:40:39.586Z,4.97
2017-09-15T18:43:07.093Z,4.10
2017-09-15T18:45:35.238Z,3.70
2017-09-15T18:48:03.031Z,6.43
2017-09-15T18:50:31.302Z,4.87
2017-09-15T18:52:59.042Z,3.90
2017-09-15T18:55:26.883Z,13.23
2017-09-15T18:57:54.438Z,7.13
2017-09-15T19:00:22.269Z,7.73
2017-09-15T19:02:50.061Z,6.13
2017-09-15T19:05:17.857Z,3.03
2017-09-15T19:07:46.580Z,4.40
2017-09-15T21:19:09.927Z,15.90
2017-09-15T21:21:40.275Z,16.97
2017-09-15T21:24:09.935Z,15.23
2017-09-15T21:26:39.847Z,18.70
2017-09-15T21:29:10.515Z,15.50
2017-09-15T21:31:42.525Z,19.03
2017-09-15T21:34:12.162Z,25.23
2017-09-15T21:36:42.096Z,27.97
2017-09-15T21:39:11.849Z,17.57
2017-09-15T21:41:41.371Z,21.57
2017-09-15T22:00:02.660Z,131.80
2017-09-15T22:02:32.142Z,127.13
2017-09-15T22:05:02.388Z,161.43
2017-09-15T22:07:32.619Z,280.73
2017-09-15T22:10:02.310Z,262.67
2017-09-15T22:12:31.817Z,319.43
2017-09-15T22:15:01.281Z,207.87
2017-09-15T22:17:31.572Z,187.63
2017-09-15T22:20:01.259Z,169.43
2017-09-15T22:22:30.680Z,153.53
2017-09-15T22:25:00.090Z,159.27
2017-09-15T22:27:29.500Z,180.30
2017-09-15T22:29:58.957Z,172.20
2017-09-15T22:32:28.434Z,204.60
2017-09-15T22:34:58.682Z,196.07
2017-09-15T22:37:28.244Z,138.40
2017-09-15T22:39:57.679Z,127.17
2017-09-15T22:42:28.144Z,146.73
2017-09-15T22:44:59.749Z,201.33
2017-09-15T22:47:37.282Z,159.00
2017-09-15T22:50:11.243Z,140.80
2017-09-15T22:52:40.764Z,155.33
2017-09-15T22:55:10.186Z,127.10
2017-09-15T22:57:43.274Z,143.37
2017-09-15T23:00:18.962Z,120.43
